Time;durP1;ratioP1;P1;durP2;ratioP2;P2;SDS_P1;SDS_P2;PMS_P1;PMS_P2;Temp;Humidity;BMP_temperature;BMP_pressure;BME280_temperature;BME280_humidity;BME280_pressure;Samples;Min_cycle;Max_cycle;Signal;HPM_P1;HPM_P2
2024/01/06 00:00:05;;;;;;;3.50;3.20;;;;;;;19.81;53.72;96231.91;4998706;28;20257;-26
2024/01/06 00:02:32;;;;;;;3.30;3.00;;;;;;;19.82;53.59;96235.34;5003852;28;20284;-30
2024/01/06 00:04:58;;;;;;;2.90;2.60;;;;;;;19.83;53.80;96229.38;4997883;28;20315;-27
2024/01/06 00:07:25;;;;;;;3.30;3.00;;;;;;;19.84;53.72;96236.22;5009561;28;20195;-27
2024/01/06 00:09:52;;;;;;;3.40;3.10;;;;;;;19.83;53.64;96229.38;4994671;28;20214;-26
2024/01/06 00:12:19;;;;;;;3.10;2.80;;;;;;;19.83;53.71;96231.94;4996879;28;20305;-26
2024/01/06 00:14:46;;;;;;;3.43;2.97;;;;;;;19.83;53.72;96222.63;5005001;28;20214;-26
2024/01/06 00:17:12;;;;;;;3.83;2.77;;;;;;;19.84;53.27;96228.59;5005279;28;20198;-26
2024/01/06 00:19:39;;;;;;;3.10;2.80;;;;;;;19.84;54.18;96228.59;5013522;28;20198;-30
2024/01/06 00:22:05;;;;;;;3.20;2.93;;;;;;;19.82;53.64;96227.69;5002509;28;20230;-26
2024/01/06 00:24:32;;;;;;;3.00;2.70;;;;;;;19.83;53.83;96226.84;4998021;28;20233;-26
2024/01/06 00:26:58;;;;;;;3.27;2.80;;;;;;;19.84;53.69;96231.13;5011015;28;20257;-26
2024/01/06 00:29:25;;;;;;;3.37;3.07;;;;;;;19.83;53.74;96224.28;5009631;28;20252;-28
2024/01/06 00:31:51;;;;;;;2.83;2.60;;;;;;;19.83;53.74;96226.84;5002453;28;20258;-27
2024/01/06 00:34:18;;;;;;;3.27;2.97;;;;;;;19.84;53.65;96233.69;5003710;28;20221;-26
2024/01/06 00:36:45;;;;;;;3.20;2.90;;;;;;;19.82;53.66;96233.66;5007613;28;20449;-26
2024/01/06 00:39:11;;;;;;;3.57;2.87;;;;;;;19.82;53.59;96230.25;5003306;28;20203;-26
2024/01/06 00:41:38;;;;;;;3.20;2.90;;;;;;;19.82;53.67;96233.66;4995644;28;20222;-27
2024/01/06 00:44:05;;;;;;;3.23;2.93;;;;;;;19.82;53.34;96227.69;5001152;28;20223;-26
2024/01/06 00:46:31;;;;;;;3.83;3.07;;;;;;;19.81;53.93;96239.56;5010383;28;20653;-26
2024/01/06 00:48:58;;;;;;;3.20;2.90;;;;;;;19.80;53.84;96232.75;4999291;28;20207;-30
2024/01/06 00:51:25;;;;;;;3.33;3.00;;;;;;;19.80;53.75;96239.53;5006842;28;20305;-27
2024/01/06 00:53:51;;;;;;;3.13;2.83;;;;;;;19.81;53.64;96236.19;4994607;28;20210;-26
2024/01/06 00:56:18;;;;;;;3.30;3.00;;;;;;;19.82;53.63;96235.34;5010865;28;20289;-29
2024/01/06 00:58:44;;;;;;;3.40;3.10;;;;;;;19.82;53.72;96242.97;5002362;28;20230;-27
2024/01/06 01:01:11;;;;;;;3.37;3.07;;;;;;;19.81;53.58;96242.13;5006501;28;20297;-26
2024/01/06 01:03:38;;;;;;;3.20;2.90;;;;;;;19.82;53.78;96251.50;5009657;28;20225;-30
2024/01/06 01:06:04;;;;;;;3.23;3.00;;;;;;;19.81;53.81;96247.22;4998934;28;20230;-32
2024/01/06 01:08:31;;;;;;;3.23;2.93;;;;;;;19.79;53.94;96235.28;5005213;28;20563;-26
2024/01/06 01:10:58;;;;;;;3.10;2.80;;;;;;;19.82;53.65;96248.09;5010664;28;20286;-26
2024/01/06 01:13:25;;;;;;;3.20;2.90;;;;;;;19.81;53.83;96247.22;5008487;28;20680;-28
2024/01/06 01:15:52;;;;;;;3.10;2.80;;;;;;;19.82;53.81;96255.72;5004165;28;20215;-26
2024/01/06 01:18:18;;;;;;;3.20;2.90;;;;;;;19.83;54.14;96257.44;5001230;28;20203;-26
2024/01/06 01:20:45;;;;;;;2.97;2.67;;;;;;;19.82;53.55;96253.19;5001032;28;20203;-26
2024/01/06 01:23:12;;;;;;;2.97;2.77;;;;;;;19.83;53.71;96247.22;4996304;28;20273;-26
2024/01/06 01:25:39;;;;;;;3.37;3.07;;;;;;;19.80;53.63;96237.00;5010001;28;20246;-27
2024/01/06 01:28:05;;;;;;;3.00;2.80;;;;;;;19.80;53.65;96244.63;5001772;28;20203;-28
2024/01/06 01:30:32;;;;;;;3.33;3.03;;;;;;;19.81;53.60;96247.22;4999558;28;20693;-27
2024/01/06 01:32:59;;;;;;;3.33;3.03;;;;;;;19.82;53.60;96248.09;5001401;28;20239;-26
2024/01/06 01:35:27;;;;;;;3.43;2.90;;;;;;;19.80;53.62;96253.16;5002625;28;20724;-27
2024/01/06 01:37:53;;;;;;;3.80;3.20;;;;;;;19.79;53.79;96236.16;5010202;28;20298;-27
2024/01/06 01:40:20;;;;;;;3.47;3.17;;;;;;;19.80;53.70;96237.00;5005378;28;20258;-33
2024/01/06 01:42:46;;;;;;;3.17;2.87;;;;;;;19.80;53.71;96240.41;5006409;28;20301;-26
2024/01/06 01:45:13;;;;;;;3.10;2.80;;;;;;;19.79;53.77;96242.94;4998200;28;20192;-26
2024/01/06 01:47:40;;;;;;;3.50;3.20;;;;;;;19.80;53.70;96244.63;5007413;28;20758;-26
2024/01/06 01:50:07;;;;;;;2.90;2.70;;;;;;;19.80;53.75;96247.19;5002285;28;20206;-26
2024/01/06 01:52:35;;;;;;;3.53;3.23;;;;;;;19.81;53.74;96248.94;5002173;28;20230;-26
2024/01/06 01:55:02;;;;;;;3.53;3.23;;;;;;;19.81;53.85;96252.31;5004028;28;20280;-26
2024/01/06 01:57:28;;;;;;;3.30;3.00;;;;;;;19.81;53.74;96256.56;5001295;28;20201;-27
2024/01/06 01:59:55;;;;;;;3.13;2.87;;;;;;;19.82;53.73;96250.63;5004098;28;20666;-30
2024/01/06 02:02:22;;;;;;;3.40;3.10;;;;;;;19.80;53.57;96247.19;5007334;28;20308;-26
2024/01/06 02:04:48;;;;;;;3.60;3.30;;;;;;;19.81;53.71;96254.84;4993895;28;20282;-27
2024/01/06 02:07:15;;;;;;;3.37;3.07;;;;;;;19.81;53.88;96247.22;4998948;28;20195;-27
2024/01/06 02:09:42;;;;;;;3.33;3.03;;;;;;;19.82;53.83;96253.19;5007673;28;20650;-26
2024/01/06 02:12:08;;;;;;;3.10;2.90;;;;;;;19.82;53.66;96250.63;5004468;28;20692;-27
2024/01/06 02:14:35;;;;;;;3.63;3.10;;;;;;;19.82;53.94;96250.63;5004069;28;20663;-29
2024/01/06 02:17:02;;;;;;;3.37;3.07;;;;;;;19.80;53.81;96252.28;5007127;28;20214;-28
2024/01/06 02:19:28;;;;;;;3.43;3.10;;;;;;;19.82;53.79;96259.16;4998527;28;20249;-27
2024/01/06 02:21:55;;;;;;;3.17;2.87;;;;;;;19.82;53.73;96261.69;4999557;28;20280;-26
2024/01/06 02:24:22;;;;;;;3.50;3.20;;;;;;;19.82;53.75;96259.16;5004451;28;20245;-27
2024/01/06 02:26:49;;;;;;;3.03;2.73;;;;;;;19.83;53.86;96257.44;5004332;28;20203;-27
2024/01/06 02:29:15;;;;;;;3.80;3.40;;;;;;;19.82;53.70;96256.59;5008285;28;20290;-29
2024/01/06 02:31:42;;;;;;;3.17;2.87;;;;;;;19.83;53.84;96255.75;5002082;28;20222;-28
2024/01/06 02:34:08;;;;;;;3.07;2.83;;;;;;;19.84;53.80;96264.28;5008727;28;20736;-26
2024/01/06 02:36:35;;;;;;;3.30;3.00;;;;;;;19.83;53.67;96259.97;5005944;28;20202;-26
2024/01/06 02:39:02;;;;;;;3.03;2.73;;;;;;;19.84;53.66;96256.63;5000834;28;20210;-31
2024/01/06 02:41:28;;;;;;;3.20;2.90;;;;;;;19.83;53.69;96258.31;5001461;28;20229;-27
2024/01/06 02:43:56;;;;;;;3.53;3.23;;;;;;;19.84;53.63;96262.56;5006809;28;20206;-26
2024/01/06 02:46:22;;;;;;;2.97;2.77;;;;;;;19.84;53.63;96269.38;5007643;28;20576;-27
2024/01/06 02:48:49;;;;;;;3.27;2.97;;;;;;;19.84;53.72;96262.56;4997316;28;20567;-26
2024/01/06 02:51:16;;;;;;;3.10;2.90;;;;;;;19.84;53.74;96265.09;5001275;28;20217;-26
2024/01/06 02:53:43;;;;;;;3.50;3.20;;;;;;;19.86;53.58;96263.44;5004339;28;20630;-28
2024/01/06 02:56:11;;;;;;;3.30;3.00;;;;;;;19.86;53.50;96262.56;5004321;28;20815;-26
2024/01/06 02:58:38;;;;;;;2.90;2.63;;;;;;;19.81;53.57;96248.94;4999751;28;20318;-26
2024/01/06 03:01:05;;;;;;;3.47;3.17;;;;;;;19.92;53.52;96265.22;5002746;28;20201;-26
2024/01/06 03:03:31;;;;;;;3.50;2.97;;;;;;;19.94;53.41;96266.13;4998388;28;20210;-26
2024/01/06 03:05:58;;;;;;;2.93;2.73;;;;;;;19.95;53.35;96265.28;5004479;28;20210;-29
2024/01/06 03:08:25;;;;;;;3.57;3.20;;;;;;;19.96;53.51;96267.00;4998849;28;20221;-26
2024/01/06 03:10:51;;;;;;;3.37;3.00;;;;;;;19.98;53.65;96267.88;5000126;28;20319;-30
2024/01/06 03:13:18;;;;;;;3.30;3.00;;;;;;;19.99;53.17;96267.91;4998569;28;20206;-26
2024/01/06 03:15:45;;;;;;;2.97;2.70;;;;;;;20.00;52.84;96276.41;5005513;28;20225;-27
2024/01/06 03:18:12;;;;;;;3.00;2.77;;;;;;;20.04;53.08;96277.31;5003086;28;20210;-27
2024/01/06 03:20:39;;;;;;;3.20;2.90;;;;;;;20.03;53.33;96268.81;5000331;28;20224;-26
2024/01/06 03:23:05;;;;;;;3.20;2.90;;;;;;;20.04;53.21;96267.97;5005071;28;20222;-26
2024/01/06 03:25:32;;;;;;;3.83;3.27;;;;;;;20.06;53.00;96265.44;5010009;28;20198;-28
2024/01/06 03:27:58;;;;;;;3.37;3.07;;;;;;;20.05;53.20;96274.81;5002647;28;20706;-27
2024/01/06 03:30:25;;;;;;;3.50;3.20;;;;;;;20.08;52.92;96279.09;5001454;28;20202;-27
2024/01/06 03:32:51;;;;;;;3.27;3.00;;;;;;;20.08;52.88;96279.94;5004167;28;20226;-31
2024/01/06 03:35:18;;;;;;;3.50;3.20;;;;;;;20.11;53.01;96280.00;4998520;28;20271;-28
2024/01/06 03:37:45;;;;;;;3.40;3.10;;;;;;;20.12;52.84;96276.59;5001853;28;20207;-27
2024/01/06 03:40:12;;;;;;;3.40;3.10;;;;;;;20.11;53.02;96280.00;4995958;28;20594;-26
2024/01/06 03:42:38;;;;;;;3.07;2.87;;;;;;;20.13;52.95;96283.44;4997759;28;20251;-26
2024/01/06 03:45:05;;;;;;;3.40;3.10;;;;;;;20.15;52.96;96278.34;4995366;28;20203;-27
2024/01/06 03:47:32;;;;;;;2.97;2.77;;;;;;;20.15;52.81;96283.47;5002853;28;20203;-26
2024/01/06 03:49:58;;;;;;;3.53;3.23;;;;;;;20.15;52.72;96289.44;4999601;28;20356;-26
2024/01/06 03:52:25;;;;;;;3.10;2.80;;;;;;;20.16;52.90;96296.22;4998707;28;20222;-27
2024/01/06 03:54:52;;;;;;;3.40;3.10;;;;;;;20.16;52.47;96293.69;5006119;28;20218;-26
2024/01/06 03:57:18;;;;;;;3.57;3.17;;;;;;;20.15;52.74;96291.97;5008784;28;20618;-26
2024/01/06 03:59:45;;;;;;;3.27;2.97;;;;;;;20.17;52.67;96302.22;5007804;28;20226;-29
2024/01/06 04:02:12;;;;;;;3.23;2.93;;;;;;;20.17;52.70;96305.63;4993901;28;20226;-28
2024/01/06 04:04:38;;;;;;;3.60;3.17;;;;;;;20.19;52.76;96310.75;5003885;28;20231;-26
2024/01/06 04:07:06;;;;;;;3.60;3.30;;;;;;;20.18;52.65;96307.34;5006162;28;20210;-29
2024/01/06 04:09:33;;;;;;;3.37;2.93;;;;;;;20.19;52.78;96309.03;5013354;28;20214;-29
2024/01/06 04:12:00;;;;;;;3.00;2.80;;;;;;;20.20;52.74;96312.47;5000066;28;20258;-28
2024/01/06 04:14:27;;;;;;;3.30;3.00;;;;;;;20.19;52.63;96314.13;5008463;28;20241;-26
2024/01/06 04:16:56;;;;;;;3.50;3.20;;;;;;;20.21;52.58;96309.94;5002390;28;21269;-28
2024/01/06 04:19:23;;;;;;;3.23;2.97;;;;;;;20.21;52.50;96307.38;5004425;28;20205;-26
2024/01/06 04:21:50;;;;;;;3.07;2.77;;;;;;;20.22;52.66;96313.34;5005327;28;20218;-27
2024/01/06 04:24:17;;;;;;;3.37;3.07;;;;;;;20.21;52.79;96316.72;5007128;28;20626;-26
2024/01/06 04:26:44;;;;;;;3.20;2.90;;;;;;;20.23;52.69;96322.72;5006958;28;20204;-26
2024/01/06 04:29:14;;;;;;;3.17;2.87;;;;;;;20.23;52.69;96323.56;5010369;28;20401;-26
2024/01/06 04:31:41;;;;;;;3.30;3.00;;;;;;;20.18;52.77;96324.31;5003192;28;20277;-28
2024/01/06 04:34:08;;;;;;;3.10;2.90;;;;;;;20.12;52.92;96331.84;5010483;28;20202;-26
2024/01/06 04:36:35;;;;;;;3.30;2.93;;;;;;;20.08;52.81;96320.75;5006397;28;20285;-29
2024/01/06 04:39:01;;;;;;;3.10;2.80;;;;;;;20.02;52.93;96324.03;5011549;28;20253;-29
2024/01/06 04:41:28;;;;;;;3.50;3.20;;;;;;;20.03;52.85;96327.47;5002471;28;20219;-26
2024/01/06 04:43:54;;;;;;;3.23;2.93;;;;;;;20.01;53.00;96334.22;5003104;28;20238;-26
2024/01/06 04:46:21;;;;;;;3.30;3.00;;;;;;;19.98;53.10;96329.06;5013031;28;20665;-33
2024/01/06 04:48:48;;;;;;;3.50;3.20;;;;;;;19.98;53.13;96330.78;5005592;28;20253;-26
2024/01/06 04:51:15;;;;;;;3.40;3.10;;;;;;;19.96;53.34;96336.69;5006869;28;20301;-26
2024/01/06 04:53:42;;;;;;;3.40;3.10;;;;;;;19.94;53.02;96346.03;5008603;28;20203;-27
2024/01/06 04:56:08;;;;;;;3.00;2.70;;;;;;;19.93;53.19;96339.19;5009538;28;20230;-26
2024/01/06 04:58:35;;;;;;;3.60;3.10;;;;;;;19.87;53.28;96328.06;5011191;28;20578;-26
2024/01/06 05:01:02;;;;;;;3.20;2.93;;;;;;;19.91;53.18;96340.88;5012337;28;20245;-34
2024/01/06 05:03:29;;;;;;;3.13;2.83;;;;;;;19.90;53.34;96344.25;5010425;28;20681;-26
2024/01/06 05:05:55;;;;;;;3.20;2.90;;;;;;;19.89;53.21;96342.53;5007100;28;20199;-26
2024/01/06 05:08:22;;;;;;;2.97;2.77;;;;;;;19.89;53.49;96341.66;5005671;28;20203;-27
2024/01/06 05:10:49;;;;;;;3.10;2.80;;;;;;;19.88;53.13;96345.94;5009930;28;20199;-30
2024/01/06 05:13:17;;;;;;;2.97;2.77;;;;;;;19.87;53.66;96341.63;5002996;28;20207;-26
2024/01/06 05:15:44;;;;;;;3.23;2.93;;;;;;;19.87;53.79;96335.69;4999224;28;20403;-26
2024/01/06 05:18:10;;;;;;;3.00;2.73;;;;;;;19.87;53.22;96341.63;5007697;28;20208;-26
2024/01/06 05:20:37;;;;;;;3.00;2.80;;;;;;;19.89;53.14;96341.66;5003952;28;20595;-26
2024/01/06 05:23:04;;;;;;;2.97;2.67;;;;;;;19.88;53.27;96345.06;5006575;28;20230;-32
2024/01/06 05:25:30;;;;;;;2.90;2.70;;;;;;;19.90;53.24;96341.69;5002950;28;20441;-29
2024/01/06 05:27:57;;;;;;;3.00;2.80;;;;;;;19.92;53.11;96346.81;5007452;28;20256;-26
2024/01/06 05:30:24;;;;;;;3.10;2.80;;;;;;;19.93;53.27;96343.44;5012148;28;20210;-26
2024/01/06 05:32:50;;;;;;;2.83;2.53;;;;;;;19.94;53.13;96346.03;4999230;28;20226;-26
2024/01/06 05:35:17;;;;;;;3.20;2.90;;;;;;;19.95;52.91;96359.63;4999277;28;20227;-28
2024/01/06 05:37:44;;;;;;;2.90;2.70;;;;;;;19.96;52.96;96346.88;5005248;28;20285;-26
2024/01/06 05:40:11;;;;;;;3.20;2.90;;;;;;;19.97;53.17;96350.31;5003969;28;20203;-26
2024/01/06 05:42:38;;;;;;;2.80;2.60;;;;;;;19.99;53.24;96351.22;5005086;28;20281;-27
2024/01/06 05:45:05;;;;;;;3.43;3.00;;;;;;;20.00;52.95;96358.00;5001613;28;20211;-27
2024/01/06 05:47:32;;;;;;;3.10;2.80;;;;;;;20.02;53.04;96360.59;5005238;28;20194;-26
2024/01/06 05:49:59;;;;;;;2.83;2.60;;;;;;;20.03;53.31;96365.72;5005661;28;20293;-26
2024/01/06 05:52:25;;;;;;;3.30;3.00;;;;;;;20.04;52.80;96364.88;5004559;28;20281;-29
2024/01/06 05:54:52;;;;;;;3.07;2.83;;;;;;;20.05;52.60;96370.84;5002638;28;20285;-27
2024/01/06 05:57:19;;;;;;;2.90;2.70;;;;;;;20.07;52.66;96371.72;5008277;28;20218;-26
2024/01/06 05:59:46;;;;;;;3.30;3.00;;;;;;;20.08;52.82;96371.75;4997374;28;20207;-26
2024/01/06 06:02:13;;;;;;;2.73;2.53;;;;;;;20.10;52.94;96376.88;4997267;28;20254;-27
2024/01/06 06:04:40;;;;;;;3.13;2.83;;;;;;;20.11;52.59;96381.16;5011373;28;20211;-30
2024/01/06 06:07:06;;;;;;;2.83;2.63;;;;;;;20.11;52.76;96392.22;5004366;28;20230;-28
2024/01/06 06:09:34;;;;;;;3.00;2.70;;;;;;;20.13;52.52;96400.75;5006734;28;20203;-27
2024/01/06 06:12:01;;;;;;;3.17;2.87;;;;;;;20.15;52.65;96399.09;5005245;28;20229;-27
2024/01/06 06:14:28;;;;;;;2.90;2.70;;;;;;;20.15;52.73;96399.09;5010310;28;20201;-26
2024/01/06 06:16:56;;;;;;;2.80;2.60;;;;;;;20.15;52.58;96399.09;5006993;28;20241;-26
2024/01/06 06:19:23;;;;;;;3.10;2.83;;;;;;;20.17;52.11;96404.22;5001977;28;20269;-27
2024/01/06 06:21:50;;;;;;;3.03;2.60;;;;;;;20.18;52.41;96404.25;5006125;28;20222;-26
2024/01/06 06:24:16;;;;;;;2.60;2.40;;;;;;;20.18;52.47;96414.47;5003544;28;20710;-26
2024/01/06 06:26:43;;;;;;;2.87;2.57;;;;;;;20.19;52.51;96416.16;5005165;28;20284;-26
2024/01/06 06:29:10;;;;;;;3.03;2.73;;;;;;;20.19;52.53;96416.16;5010033;28;20238;-26
2024/01/06 06:31:36;;;;;;;2.80;2.60;;;;;;;20.18;52.16;96409.38;5006269;28;20222;-35
2024/01/06 06:34:03;;;;;;;2.97;2.77;;;;;;;20.23;52.34;96417.09;5006400;28;20209;-31
2024/01/06 06:36:34;;;;;;;2.50;2.30;;;;;;;20.24;52.46;96423.91;5004854;28;20219;-27
2024/01/06 06:39:01;;;;;;;2.47;2.27;;;;;;;20.26;52.17;96429.91;4999502;28;20289;-26
2024/01/06 06:41:28;;;;;;;3.43;2.87;;;;;;;20.27;52.08;96436.72;4998917;28;20285;-29
2024/01/06 06:43:54;;;;;;;2.77;2.57;;;;;;;20.28;52.32;96443.56;5006333;28;20673;-26
2024/01/06 06:46:21;;;;;;;2.87;2.67;;;;;;;20.30;52.23;96449.50;5006105;28;20682;-34
2024/01/06 06:48:47;;;;;;;2.63;2.43;;;;;;;20.31;52.28;96446.16;5006464;28;20234;-26
2024/01/06 06:51:14;;;;;;;2.97;2.77;;;;;;;20.31;52.22;96447.00;5010661;28;20264;-28
2024/01/06 06:53:41;;;;;;;2.90;2.70;;;;;;;20.31;52.10;96448.72;5002328;28;20209;-29
2024/01/06 06:56:07;;;;;;;3.10;2.80;;;;;;;20.30;52.07;96449.50;5006516;28;20321;-27
2024/01/06 06:58:34;;;;;;;3.27;3.00;;;;;;;20.29;51.95;96458.00;5003505;28;20219;-28
2024/01/06 07:01:00;;;;;;;2.93;2.50;;;;;;;20.06;51.88;96424.41;4998637;28;20202;-28
2024/01/06 07:03:27;;;;;;;2.57;2.37;;;;;;;20.27;51.08;96464.78;5008121;28;20195;-28
2024/01/06 07:05:54;;;;;;;3.27;2.87;;;;;;;20.26;50.62;96475.81;5007159;28;20198;-27
2024/01/06 07:08:21;;;;;;;4.03;3.20;;;;;;;20.23;49.96;96468.97;5007522;28;20198;-28
2024/01/06 07:10:47;;;;;;;3.40;3.00;;;;;;;20.20;48.68;96471.47;5005593;28;20245;-27
2024/01/06 07:13:14;;;;;;;5.07;3.00;;;;;;;20.18;48.19;96468.03;5007480;28;20701;-28
2024/01/06 07:15:41;;;;;;;7.30;3.10;;;;;;;20.15;48.04;96457.78;5002510;28;20241;-27
2024/01/06 07:18:08;;;;;;;5.07;3.13;;;;;;;20.13;47.28;96456.03;5011377;28;20687;-27
2024/01/06 07:20:34;;;;;;;5.30;3.30;;;;;;;20.10;48.10;96448.28;5004489;28;20616;-27
2024/01/06 07:23:03;;;;;;;4.00;3.27;;;;;;;20.07;47.40;96450.78;5005013;28;20322;-26
2024/01/06 07:25:30;;;;;;;6.13;3.00;;;;;;;20.05;46.72;96455.88;5007778;28;20202;-28
2024/01/06 07:27:57;;;;;;;4.73;2.90;;;;;;;20.02;46.63;96462.59;5008795;28;20677;-26
2024/01/06 07:30:24;;;;;;;4.47;3.20;;;;;;;20.01;46.18;96460.88;5004475;28;20206;-27
2024/01/06 07:32:51;;;;;;;6.13;3.37;;;;;;;19.98;45.73;96466.75;5004726;28;20230;-26
2024/01/06 07:35:18;;;;;;;4.43;3.70;;;;;;;19.96;45.46;96479.50;5008057;28;20206;-26
2024/01/06 07:37:45;;;;;;;6.63;3.57;;;;;;;19.93;45.14;96474.34;5008059;28;20226;-26
2024/01/06 07:40:16;;;;;;;4.90;3.73;;;;;;;19.94;44.62;96482.84;5001464;28;20226;-27
2024/01/06 07:42:43;;;;;;;5.63;3.80;;;;;;;19.93;44.50;96483.69;5015608;28;20244;-27
2024/01/06 07:45:10;;;;;;;5.87;3.57;;;;;;;19.91;44.92;96487.91;5007749;28;20223;-26
2024/01/06 07:47:37;;;;;;;6.60;3.83;;;;;;;19.90;44.78;96481.91;5009531;28;20260;-27
2024/01/06 07:50:05;;;;;;;4.37;3.50;;;;;;;19.87;44.59;96489.50;5003180;28;20210;-28
2024/01/06 07:52:32;;;;;;;6.57;3.87;;;;;;;19.88;44.48;96498.03;4998962;28;20247;-29
2024/01/06 07:54:59;;;;;;;5.07;3.73;;;;;;;19.85;44.30;96491.19;5002840;28;20261;-27
2024/01/06 07:57:25;;;;;;;5.00;3.90;;;;;;;19.86;44.41;96486.94;4998980;28;20318;-29
2024/01/06 07:59:52;;;;;;;3.77;3.20;;;;;;;19.85;43.91;96495.41;5009847;28;20203;-27
2024/01/06 08:02:19;;;;;;;4.67;3.70;;;;;;;19.78;44.91;96498.69;5007904;28;20261;-26
2024/01/06 08:04:45;;;;;;;4.87;3.50;;;;;;;19.74;45.33;96502.84;5003904;28;20203;-26
2024/01/06 08:07:13;;;;;;;5.90;3.80;;;;;;;19.72;44.82;96493.47;5004364;28;20191;-26
2024/01/06 08:09:40;;;;;;;5.30;3.47;;;;;;;19.70;44.46;96500.22;5006633;28;20262;-26
2024/01/06 08:12:07;;;;;;;5.33;3.67;;;;;;;19.70;44.48;96498.53;5008281;28;20660;-31
2024/01/06 08:14:34;;;;;;;4.90;3.87;;;;;;;19.69;45.10;96501.91;5005017;28;20203;-27
2024/01/06 08:17:01;;;;;;;5.23;3.33;;;;;;;19.59;45.63;96494.03;5003816;28;20605;-26
2024/01/06 08:19:29;;;;;;;4.43;3.23;;;;;;;19.69;45.26;96512.09;5004680;28;20653;-26
2024/01/06 08:21:56;;;;;;;5.47;3.53;;;;;;;19.67;46.14;96516.31;5010612;28;20227;-26
2024/01/06 08:24:23;;;;;;;4.43;3.30;;;;;;;19.67;46.70;96507.81;4998556;28;20289;-26
2024/01/06 08:26:49;;;;;;;4.70;3.20;;;;;;;19.66;46.94;96516.28;5006166;28;20202;-27
2024/01/06 08:29:19;;;;;;;3.73;2.97;;;;;;;19.66;47.50;96514.56;5007597;28;20711;-31
2024/01/06 08:31:45;;;;;;;6.00;3.30;;;;;;;19.67;47.88;96518.00;5009830;28;20594;-26
2024/01/06 08:34:12;;;;;;;3.70;3.30;;;;;;;19.67;48.28;96521.41;5007753;28;20273;-29
2024/01/06 08:36:39;;;;;;;3.97;3.13;;;;;;;19.60;48.47;96506.81;5002588;28;20602;-26
2024/01/06 08:39:06;;;;;;;3.57;2.87;;;;;;;19.68;48.88;96512.94;4996563;28;20206;-32
2024/01/06 08:41:32;;;;;;;4.27;3.07;;;;;;;19.70;49.06;96526.56;5001850;28;20272;-29
2024/01/06 08:43:59;;;;;;;3.00;2.70;;;;;;;19.72;49.04;96529.16;5004958;28;20210;-26
2024/01/06 08:46:25;;;;;;;3.23;2.80;;;;;;;19.72;49.14;96529.16;5004764;28;20195;-27
2024/01/06 08:48:52;;;;;;;3.77;2.77;;;;;;;19.73;49.11;96530.88;5013653;28;20198;-26
2024/01/06 08:51:20;;;;;;;3.90;3.43;;;;;;;19.75;49.15;96535.16;5009315;28;20253;-28
2024/01/06 08:53:47;;;;;;;5.70;3.33;;;;;;;19.76;49.27;96541.13;5015073;28;20314;-26
2024/01/06 08:56:13;;;;;;;4.80;3.30;;;;;;;19.79;49.45;96541.19;5011285;28;20250;-27
2024/01/06 08:58:40;;;;;;;4.47;2.83;;;;;;;19.81;49.47;96553.13;5008185;28;20199;-27
2024/01/06 09:01:06;;;;;;;12.17;3.77;;;;;;;19.84;49.45;96545.53;5006090;28;20253;-26
2024/01/06 09:03:33;;;;;;;10.67;3.30;;;;;;;19.85;49.55;96552.38;5001834;28;20218;-26
2024/01/06 09:06:00;;;;;;;4.03;3.03;;;;;;;19.85;49.68;96548.97;5003831;28;20198;-26
2024/01/06 09:08:27;;;;;;;8.23;3.07;;;;;;;19.85;49.70;96548.97;4994039;28;20285;-27
2024/01/06 09:10:56;;;;;;;7.60;3.43;;;;;;;19.85;49.88;96556.59;5010674;28;20672;-27
2024/01/06 09:13:23;;;;;;;4.27;3.10;;;;;;;19.86;49.89;96556.66;5010144;28;20202;-28
2024/01/06 09:15:51;;;;;;;5.13;3.07;;;;;;;19.83;49.88;96555.72;5011737;28;20238;-29
2024/01/06 09:18:17;;;;;;;3.47;2.80;;;;;;;19.86;50.17;96559.19;4994585;28;20214;-26
2024/01/06 09:20:47;;;;;;;3.80;2.83;;;;;;;19.87;50.27;96571.09;5007599;28;20195;-26
2024/01/06 09:23:14;;;;;;;7.07;3.10;;;;;;;19.88;50.43;96571.97;5010286;28;20209;-26
2024/01/06 09:25:40;;;;;;;7.43;3.07;;;;;;;19.88;50.42;96570.28;5013649;28;20226;-30
2024/01/06 09:28:07;;;;;;;7.27;3.17;;;;;;;19.89;50.20;96576.22;5013544;28;20229;-26
2024/01/06 09:30:33;;;;;;;3.90;2.80;;;;;;;19.92;50.38;96568.66;5012709;28;20241;-26
2024/01/06 09:33:00;;;;;;;4.40;3.00;;;;;;;19.93;50.58;96573.78;5011353;28;20234;-29
2024/01/06 09:35:27;;;;;;;4.83;2.90;;;;;;;19.94;50.58;96570.41;5004524;28;20201;-26
2024/01/06 09:37:53;;;;;;;4.93;3.13;;;;;;;19.95;50.45;96572.13;5002844;28;20231;-26
2024/01/06 09:40:23;;;;;;;6.43;3.30;;;;;;;20.01;50.42;96575.66;5000781;28;20207;-26
2024/01/06 09:42:50;;;;;;;5.30;2.97;;;;;;;20.02;50.57;96574.81;5006846;28;20250;-26
2024/01/06 09:45:17;;;;;;;10.80;3.20;;;;;;;20.00;50.79;96579.88;5011487;28;20826;-29
2024/01/06 09:47:46;;;;;;;5.57;3.00;;;;;;;20.03;50.75;96579.94;5001729;28;20195;-27
2024/01/06 09:50:13;;;;;;;4.17;3.10;;;;;;;20.01;50.80;96573.94;4978397;28;20203;-26
2024/01/06 09:52:43;;;;;;;4.70;2.93;;;;;;;20.02;50.79;96575.66;4992177;28;20697;-29
2024/01/06 09:55:11;;;;;;;4.93;2.93;;;;;;;20.02;50.78;96579.06;5008371;28;20202;-27
2024/01/06 09:57:38;;;;;;;5.47;2.90;;;;;;;20.04;50.79;96573.16;5007816;28;20224;-27
2024/01/06 10:00:05;;;;;;;6.60;3.40;;;;;;;19.77;50.62;96530.09;5007940;28;20261;-27
2024/01/06 10:02:32;;;;;;;4.93;3.20;;;;;;;20.04;50.69;96579.09;4999088;28;20218;-30
2024/01/06 10:04:58;;;;;;;5.63;3.13;;;;;;;20.03;50.61;96587.59;5004696;28;20214;-29
2024/01/06 10:07:28;;;;;;;6.67;3.60;;;;;;;20.07;49.30;96596.16;5007445;28;20281;-29
2024/01/06 10:09:55;;;;;;;7.50;4.80;;;;;;;20.06;48.02;96586.78;5005103;28;20214;-27
2024/01/06 10:12:25;;;;;;;6.63;4.90;;;;;;;20.02;47.51;96585.00;4996979;28;20230;-27
2024/01/06 10:14:52;;;;;;;11.13;5.07;;;;;;;19.97;46.59;96584.91;4998044;28;20299;-26
2024/01/06 10:17:19;;;;;;;10.37;4.47;;;;;;;20.00;47.61;96582.41;5002405;28;20219;-28
2024/01/06 10:19:47;;;;;;;6.67;4.30;;;;;;;20.01;48.05;96585.84;4998000;28;20210;-26
2024/01/06 10:22:14;;;;;;;5.93;4.33;;;;;;;20.01;48.16;96579.03;5002434;28;20225;-26
2024/01/06 10:24:40;;;;;;;12.63;4.47;;;;;;;20.02;48.85;96580.78;5012389;28;20457;-26
2024/01/06 10:27:08;;;;;;;7.30;4.33;;;;;;;20.04;48.82;96584.19;5007097;28;20198;-27
2024/01/06 10:29:35;;;;;;;5.50;3.57;;;;;;;20.05;49.05;96585.94;5004449;28;20234;-28
2024/01/06 10:32:02;;;;;;;8.23;4.13;;;;;;;20.05;49.25;96582.50;5007106;28;20257;-26
2024/01/06 10:34:29;;;;;;;8.87;4.67;;;;;;;20.06;49.24;96586.78;4999669;28;20217;-26
2024/01/06 10:36:55;;;;;;;5.43;3.73;;;;;;;20.06;49.13;96586.78;4997030;28;20219;-28
2024/01/06 10:39:22;;;;;;;6.13;4.00;;;;;;;20.06;49.35;96584.22;5006265;28;20201;-27
2024/01/06 10:41:49;;;;;;;4.23;3.53;;;;;;;20.06;49.39;96585.09;5005160;28;20226;-26
2024/01/06 10:44:15;;;;;;;5.53;3.60;;;;;;;20.06;49.38;96590.19;4998624;28;20207;-27
2024/01/06 10:46:42;;;;;;;5.97;3.60;;;;;;;20.06;49.72;96586.78;5000880;28;20198;-26
2024/01/06 10:49:11;;;;;;;6.53;4.20;;;;;;;20.06;49.85;96576.56;5005988;28;20661;-26
2024/01/06 10:51:38;;;;;;;6.47;3.90;;;;;;;20.05;49.86;96573.19;5006014;28;20214;-28
2024/01/06 10:54:05;;;;;;;5.30;3.90;;;;;;;20.05;49.90;96572.31;4993921;28;20214;-26
2024/01/06 10:56:41;;;;;;;5.17;4.03;;;;;;;20.04;49.86;96563.78;5003801;28;20230;-31
2024/01/06 10:59:07;;;;;;;7.33;4.03;;;;;;;20.04;49.92;96557.84;4987800;28;20252;-26
2024/01/06 11:01:35;;;;;;;5.17;3.47;;;;;;;20.06;49.79;96551.94;4986893;28;20214;-29
2024/01/06 11:04:03;;;;;;;5.67;4.03;;;;;;;20.00;49.57;96541.63;5002292;28;20207;-26
2024/01/06 11:06:30;;;;;;;6.13;4.17;;;;;;;20.06;49.76;96531.53;5000319;28;20202;-33
2024/01/06 11:09:17;;;;;;;6.17;4.00;;;;;;;20.08;49.82;96540.09;5005268;28;20203;-26
2024/01/06 11:11:43;;;;;;;7.27;4.07;;;;;;;20.10;49.65;96542.66;5001197;28;20300;-26
2024/01/06 11:14:24;;;;;;;5.70;3.80;;;;;;;20.10;49.81;96540.97;5008559;28;20205;-31
2024/01/06 11:16:51;;;;;;;7.10;3.83;;;;;;;20.08;49.95;96544.31;5003084;28;20396;-26
2024/01/06 11:19:36;;;;;;;8.50;4.20;;;;;;;20.11;49.37;96559.69;5011726;28;20237;-26
2024/01/06 11:22:23;;;;;;;18.03;5.93;;;;;;;20.17;46.26;96559.84;5003149;28;20223;-26
2024/01/06 11:24:57;;;;;;;17.13;6.43;;;;;;;20.09;46.25;96562.19;5011210;28;20285;-28
2024/01/06 11:27:28;;;;;;;15.10;6.43;;;;;;;20.04;46.92;96561.25;4999430;28;20198;-28
2024/01/06 11:29:56;;;;;;;15.87;5.67;;;;;;;20.02;47.54;96562.06;5010676;28;20198;-26
2024/01/06 11:32:40;;;;;;;14.23;5.47;;;;;;;20.00;48.11;96564.56;4998719;28;20237;-29